createdAt,value
2017-09-09T00:02:03.011Z,13.5
2017-09-09T00:07:02.857Z,13.5
2017-09-09T00:12:03.602Z,13.4
2017-09-09T00:17:03.493Z,13.4
2017-09-09T00:22:03.289Z,13.4
2017-09-09T00:27:02.980Z,13.4
2017-09-09T00:32:03.014Z,13.0
2017-09-09T00:37:03.247Z,12.9
2017-09-09T00:42:02.922Z,12.9
2017-09-09T00:47:02.691Z,12.8
2017-09-09T00:52:02.921Z,12.9
2017-09-09T00:57:02.762Z,12.9
2017-09-09T01:02:03.615Z,12.8
2017-09-09T01:07:03.035Z,12.7
2017-09-09T01:12:02.832Z,12.8
2017-09-09T01:17:02.964Z,13.0
2017-09-09T01:22:03.659Z,12.9
2017-09-09T01:27:03.372Z,13.0
2017-09-09T01:32:03.264Z,13.0
2017-09-09T01:37:02.878Z,13.0
2017-09-09T01:42:02.952Z,12.9
2017-09-09T01:47:02.783Z,12.9
2017-09-09T01:52:03.446Z,12.9
2017-09-09T01:57:03.207Z,12.9
2017-09-09T02:02:03.201Z,12.8
2017-09-09T02:07:03.006Z,12.7
2017-09-09T02:12:02.844Z,25.5
2017-09-09T02:17:03.515Z,12.4
2017-09-09T02:22:03.258Z,12.4
2017-09-09T02:27:03.096Z,12.3
2017-09-09T02:32:03.053Z,12.4
2017-09-09T02:37:02.915Z,12.3
2017-09-09T02:42:03.108Z,12.4
2017-09-09T02:47:03.422Z,12.4
2017-09-09T02:52:02.793Z,12.6
2017-09-09T02:57:03.050Z,12.5
2017-09-09T03:02:03.266Z,12.8
2017-09-09T03:07:02.896Z,12.9
2017-09-09T03:12:03.210Z,13.2
2017-09-09T03:17:03.588Z,13.3
2017-09-09T03:22:02.965Z,13.3
2017-09-09T03:27:03.222Z,13.3
2017-09-09T03:32:03.502Z,13.5
2017-09-09T03:37:02.881Z,13.5
2017-09-09T03:42:03.048Z,13.6
2017-09-09T03:47:03.399Z,13.7
2017-09-09T03:52:02.739Z,13.7
2017-09-09T03:57:03.042Z,13.8
2017-09-09T04:02:03.330Z,13.8
2017-09-09T04:07:03.636Z,13.8
2017-09-09T04:12:03.029Z,14.0
2017-09-09T04:17:03.400Z,13.9
2017-09-09T04:22:02.843Z,14.0
2017-09-09T04:27:03.176Z,14.1
2017-09-09T04:32:13.568Z,14.1
2017-09-09T04:37:02.934Z,14.2
2017-09-09T04:42:03.299Z,14.2
2017-09-09T04:47:13.198Z,14.3
2017-09-09T04:52:03.065Z,14.4
2017-09-09T04:57:03.484Z,14.3
2017-09-09T05:02:13.138Z,14.5
2017-09-09T05:07:02.764Z,14.4
2017-09-09T05:12:03.642Z,14.5
2017-09-09T05:17:17.750Z,14.5
2017-09-09T05:22:03.498Z,14.5
2017-09-09T05:27:03.126Z,14.5
2017-09-09T05:32:17.853Z,14.6
2017-09-09T05:37:03.429Z,14.6
2017-09-09T05:42:03.109Z,14.6
2017-09-09T05:47:17.474Z,14.7
2017-09-09T05:52:03.243Z,14.6
2017-09-09T05:57:02.933Z,14.6
2017-09-09T06:02:14.015Z,14.6
2017-09-09T06:07:03.379Z,14.7
2017-09-09T06:12:03.236Z,14.7
2017-09-09T06:17:13.244Z,14.8
2017-09-09T06:22:03.414Z,14.7
2017-09-09T06:27:02.852Z,14.9
2017-09-09T06:32:18.145Z,14.9
2017-09-09T06:37:03.254Z,14.9
2017-09-09T06:42:02.742Z,15.1
2017-09-09T06:47:17.880Z,15.1
2017-09-09T06:52:02.925Z,15.1
2017-09-09T06:57:03.317Z,15.1
2017-09-09T07:02:17.258Z,15.1
2017-09-09T07:07:02.782Z,15.3
2017-09-09T07:12:03.415Z,15.3
2017-09-09T07:17:13.385Z,15.3
2017-09-09T07:22:02.795Z,15.3
2017-09-09T07:27:03.683Z,15.3
2017-09-09T07:32:13.050Z,15.3
2017-09-09T07:37:02.994Z,15.4
2017-09-09T07:42:03.391Z,15.4
2017-09-09T07:47:17.569Z,15.4
2017-09-09T07:52:03.273Z,15.5
2017-09-09T07:57:02.769Z,15.5
2017-09-09T08:02:13.382Z,15.5
2017-09-09T08:07:03.230Z,15.6
2017-09-09T08:12:02.894Z,15.6
2017-09-09T08:17:13.717Z,15.7
2017-09-09T08:22:03.411Z,15.8
2017-09-09T08:27:02.898Z,15.8
2017-09-09T08:32:13.284Z,15.8
2017-09-09T08:37:03.600Z,16.1
2017-09-09T08:42:03.345Z,16.1
2017-09-09T08:47:13.095Z,16.1
2017-09-09T08:52:02.955Z,16.1
2017-09-09T08:57:03.367Z,16.1
2017-09-09T09:02:13.024Z,16.3
2017-09-09T09:07:03.293Z,16.5
2017-09-09T09:12:02.891Z,16.8
2017-09-09T09:17:18.180Z,16.8
2017-09-09T09:22:03.548Z,17.2
2017-09-09T09:27:02.968Z,17.4
2017-09-09T09:32:11.260Z,17.8
2017-09-09T09:37:03.229Z,17.9
2017-09-09T09:42:03.583Z,17.9
2017-09-09T09:47:13.366Z,18.2
2017-09-09T09:52:03.019Z,18.4
2017-09-09T09:57:03.335Z,18.5
2017-09-09T10:02:10.771Z,18.5
2017-09-09T10:07:03.130Z,18.5
2017-09-09T10:12:02.761Z,18.9
2017-09-09T10:17:13.665Z,19.0
2017-09-09T10:22:03.374Z,19.0
2017-09-09T10:27:02.812Z,18.9
2017-09-09T10:32:13.609Z,19.0
2017-09-09T10:37:03.513Z,19.1
2017-09-09T10:42:02.971Z,19.4
2017-09-09T10:47:13.620Z,19.8
2017-09-09T10:52:02.712Z,20.0
2017-09-09T10:57:03.249Z,20.0
2017-09-09T11:02:16.344Z,20.9
2017-09-09T11:07:03.410Z,21.4
2017-09-09T11:12:03.340Z,21.3
2017-09-09T11:17:16.846Z,21.5
2017-09-09T11:22:03.605Z,21.5
2017-09-09T11:27:03.382Z,21.8
2017-09-09T11:32:22.309Z,21.9
2017-09-09T11:37:03.353Z,22.2
2017-09-09T11:42:02.904Z,22.3
2017-09-09T11:47:17.316Z,22.0
2017-09-09T11:52:02.816Z,22.0
2017-09-09T11:57:03.402Z,21.6
2017-09-09T12:02:17.110Z,21.0
2017-09-09T12:07:03.219Z,20.5
2017-09-09T12:12:02.848Z,20.5
2017-09-09T12:17:14.045Z,20.5
2017-09-09T12:22:02.857Z,20.4
2017-09-09T12:27:02.901Z,20.2
2017-09-09T12:32:13.752Z,20.2
2017-09-09T12:37:03.030Z,20.3
2017-09-09T12:42:02.817Z,20.3
2017-09-09T12:47:13.606Z,20.2
2017-09-09T12:52:03.359Z,20.0
2017-09-09T12:57:02.724Z,20.0
2017-09-09T13:02:23.235Z,20.2
2017-09-09T13:07:03.344Z,20.2
2017-09-09T13:12:03.011Z,20.3
2017-09-09T13:17:13.799Z,20.2
2017-09-09T13:22:03.159Z,20.0
2017-09-09T13:27:03.569Z,19.7
2017-09-09T13:32:13.349Z,19.7
2017-09-09T13:37:02.738Z,19.7
2017-09-09T13:42:03.214Z,19.8
2017-09-09T13:47:17.476Z,19.5
2017-09-09T13:52:03.230Z,19.5
2017-09-09T13:57:02.758Z,19.4
2017-09-09T14:02:12.949Z,19.2
2017-09-09T14:07:03.489Z,19.3
2017-09-09T14:12:02.967Z,19.1
2017-09-09T14:17:17.779Z,19.1
2017-09-09T14:22:02.883Z,19.3
2017-09-09T14:27:03.373Z,19.2
2017-09-09T14:32:17.336Z,19.1
2017-09-09T14:37:03.411Z,19.1
2017-09-09T14:42:02.859Z,19.1
2017-09-09T14:47:17.867Z,19.1
2017-09-09T14:52:02.836Z,18.9
2017-09-09T14:57:03.385Z,18.7
2017-09-09T15:02:16.507Z,18.9
2017-09-09T15:07:03.315Z,18.9
2017-09-09T15:12:03.100Z,18.9
2017-09-09T15:17:17.411Z,18.7
2017-09-09T15:22:03.093Z,18.7
2017-09-09T15:27:03.484Z,18.6
2017-09-09T15:32:13.147Z,18.4
2017-09-09T15:37:03.285Z,18.2
2017-09-09T15:42:02.738Z,18.1
2017-09-09T15:47:23.041Z,18.0
2017-09-09T15:52:02.724Z,18.0
2017-09-09T15:57:03.267Z,17.7
2017-09-09T16:02:16.478Z,17.4
2017-09-09T16:07:03.226Z,17.2
2017-09-09T16:12:02.960Z,16.7
2017-09-09T16:17:17.322Z,16.5
2017-09-09T16:22:03.047Z,16.5
2017-09-09T16:27:03.498Z,16.2
2017-09-09T16:32:13.051Z,16.2
2017-09-09T16:37:03.576Z,16.0
2017-09-09T16:42:03.398Z,15.9
2017-09-09T16:47:17.476Z,15.7
2017-09-09T16:52:03.460Z,15.3
2017-09-09T16:57:03.621Z,15.0
2017-09-09T17:02:13.357Z,14.8
2017-09-09T17:07:03.022Z,14.8
2017-09-09T17:12:02.865Z,14.8
2017-09-09T17:17:16.067Z,14.8
2017-09-09T17:22:03.257Z,14.9
2017-09-09T17:27:03.178Z,14.7
2017-09-09T17:32:13.250Z,14.6
2017-09-09T17:37:03.260Z,14.5
2017-09-09T17:42:03.505Z,14.5
2017-09-09T17:47:22.681Z,14.5
2017-09-09T17:52:03.326Z,14.5
2017-09-09T17:57:02.854Z,14.6
2017-09-09T18:02:13.859Z,14.6
2017-09-09T18:07:03.012Z,14.6
2017-09-09T18:12:03.520Z,14.7
2017-09-09T18:17:11.044Z,14.7
2017-09-09T18:22:03.384Z,14.6
2017-09-09T18:27:02.813Z,14.7
2017-09-09T18:32:03.141Z,14.6
2017-09-09T18:37:03.517Z,14.5
2017-09-09T18:42:02.735Z,14.4
2017-09-09T18:47:03.061Z,14.4
2017-09-09T18:52:03.286Z,14.3
2017-09-09T18:57:03.595Z,14.3
2017-09-09T19:02:02.933Z,14.3
2017-09-09T19:07:03.365Z,14.3
2017-09-09T19:12:02.781Z,14.3
2017-09-09T19:17:03.141Z,14.3
2017-09-09T19:22:03.502Z,14.3
2017-09-09T19:27:02.879Z,14.2
2017-09-09T19:32:03.180Z,14.2
2017-09-09T19:37:03.466Z,14.2
2017-09-09T19:42:02.809Z,14.2
2017-09-09T19:47:03.113Z,14.2
2017-09-09T19:52:03.369Z,14.3
2017-09-09T19:57:02.733Z,14.4
2017-09-09T20:02:03.137Z,14.6
2017-09-09T20:07:03.416Z,14.5
2017-09-09T20:12:02.991Z,14.4
2017-09-09T20:17:03.276Z,14.4
2017-09-09T20:22:02.707Z,14.4
2017-09-09T20:27:03.101Z,14.4
2017-09-09T20:32:03.356Z,14.4
2017-09-09T20:37:02.708Z,14.4
2017-09-09T20:42:03.092Z,14.4
2017-09-09T20:47:03.435Z,14.4
2017-09-09T20:52:02.756Z,14.3
2017-09-09T20:57:02.964Z,14.3
2017-09-09T21:02:03.318Z,14.2
2017-09-09T21:07:02.864Z,14.1
2017-09-09T21:12:03.216Z,14.1
2017-09-09T21:17:03.557Z,14.0
2017-09-09T21:22:02.823Z,13.9
2017-09-09T21:27:03.136Z,13.8
2017-09-09T21:32:03.398Z,13.7
2017-09-09T21:37:02.725Z,13.7
2017-09-09T21:42:03.041Z,13.6
2017-09-09T21:47:03.372Z,13.5
2017-09-09T21:52:02.663Z,13.6
2017-09-09T21:57:02.947Z,13.6
2017-09-09T22:02:03.378Z,13.6
2017-09-09T22:07:03.122Z,13.7
2017-09-09T22:12:03.382Z,13.7
2017-09-09T22:22:03.497Z,13.7
2017-09-09T22:27:02.764Z,13.6
2017-09-09T22:32:06.245Z,13.6
2017-09-09T22:37:02.922Z,13.5
2017-09-09T22:42:03.471Z,13.4
2017-09-09T22:47:03.245Z,13.3
2017-09-09T22:52:02.800Z,13.2
2017-09-09T22:57:03.428Z,13.1
2017-09-09T23:02:03.281Z,13.1
2017-09-09T23:07:02.909Z,13.2
2017-09-09T23:12:02.809Z,13.2
2017-09-09T23:17:03.639Z,13.2
2017-09-09T23:22:03.370Z,13.4
2017-09-09T23:27:03.103Z,13.4
2017-09-09T23:32:02.865Z,13.4
2017-09-09T23:37:03.585Z,13.3
2017-09-09T23:42:03.421Z,13.2
2017-09-09T23:47:03.195Z,13.4
2017-09-09T23:52:03.142Z,13.4
2017-09-09T23:57:02.903Z,13.3
